Time;durP1;ratioP1;P1;durP2;ratioP2;P2;SDS_P1;SDS_P2;PMS_P1;PMS_P2;Temp;Humidity;BMP_temperature;BMP_pressure;BME280_temperature;BME280_humidity;BME280_pressure;Samples;Min_cycle;Max_cycle;Signal;HPM_P1;HPM_P2
2021/08/25 00:04:17;;;;;;;5.50;4.95;;;;;;;13.43;72.75;99612.94;2617462;47;20089;-67
2021/08/25 00:06:47;;;;;;;8.07;5.30;;;;;;;13.48;73.45;99623.84;2618025;54;20038;-68
2021/08/25 00:09:17;;;;;;;7.05;5.35;;;;;;;13.51;73.15;99616.31;2618298;47;20038;-67
2021/08/25 00:11:47;;;;;;;9.32;5.65;;;;;;;13.37;73.19;99609.22;2617921;54;20035;-67
2021/08/25 00:14:16;;;;;;;6.15;5.40;;;;;;;13.38;73.33;99610.88;2618725;54;20033;-65
2021/08/25 00:16:46;;;;;;;6.88;5.13;;;;;;;13.34;73.66;99612.25;2619191;47;20106;-68
2021/08/25 00:19:19;;;;;;;7.72;5.35;;;;;;;13.31;73.45;99607.34;2622111;54;20030;-66
2021/08/25 00:21:48;;;;;;;8.70;5.35;;;;;;;13.31;73.51;99605.53;2619452;47;20027;-66
2021/08/25 00:24:18;;;;;;;7.40;5.50;;;;;;;13.36;73.61;99603.09;2618632;54;20030;-67
2021/08/25 00:26:48;;;;;;;7.28;5.18;;;;;;;13.40;73.65;99606.19;2617592;54;20034;-66
2021/08/25 00:29:18;;;;;;;8.40;5.68;;;;;;;13.44;73.29;99594.19;2618767;47;20035;-66
2021/08/25 00:31:48;;;;;;;13.75;6.50;;;;;;;13.42;72.84;99590.88;2619839;54;20034;-67
2021/08/25 00:34:21;;;;;;;6.50;5.80;;;;;;;13.38;73.30;99594.94;2619036;54;20041;-67
2021/08/25 00:36:51;;;;;;;5.90;4.90;;;;;;;13.37;73.33;99594.13;2618116;54;20038;-67
2021/08/25 00:39:20;;;;;;;8.10;5.00;;;;;;;13.40;73.43;99584.13;2617827;47;20159;-66
2021/08/25 00:41:50;;;;;;;8.18;5.93;;;;;;;13.43;73.55;99578.41;2618263;39;20434;-66
2021/08/25 00:44:20;;;;;;;9.07;6.15;;;;;;;13.40;73.22;99584.13;2618883;54;20107;-65
2021/08/25 00:46:50;;;;;;;6.80;5.82;;;;;;;13.36;73.08;99589.00;2619139;54;20097;-66
2021/08/25 00:49:23;;;;;;;7.15;5.90;;;;;;;13.28;73.74;99584.66;2619427;54;20030;-67
2021/08/25 00:51:52;;;;;;;7.57;5.93;;;;;;;13.27;73.41;99590.16;2618102;54;20031;-66
2021/08/25 00:54:22;;;;;;;7.72;6.00;;;;;;;13.26;73.45;99583.19;2619728;39;20473;-68
2021/08/25 00:56:54;;;;;;;5.97;5.13;;;;;;;13.27;73.59;99583.00;2622284;54;20155;-66
2021/08/25 00:59:24;;;;;;;7.47;6.55;;;;;;;13.25;73.44;99582.38;2623727;54;20038;-67
2021/08/25 01:02:04;;;;;;;8.30;5.32;;;;;;;13.16;73.72;99583.50;2624803;54;20019;-66
2021/08/25 01:04:42;;;;;;;9.18;6.35;;;;;;;13.13;73.82;99576.72;2624499;54;20084;-66
2021/08/25 01:07:15;;;;;;;7.63;5.60;;;;;;;13.12;74.10;99583.03;2622134;54;20078;-65
2021/08/25 01:09:45;;;;;;;5.72;5.13;;;;;;;13.13;74.12;99589.16;2622732;54;20085;-65
2021/08/25 01:12:15;;;;;;;6.13;5.10;;;;;;;13.09;74.11;99587.91;2622872;54;20018;-66
2021/08/25 01:14:45;;;;;;;7.35;5.93;;;;;;;13.13;74.41;99589.97;2623105;39;20124;-66
2021/08/25 01:17:18;;;;;;;9.18;6.90;;;;;;;13.18;73.83;99591.25;2621218;54;20030;-66
2021/08/25 01:19:58;;;;;;;9.75;5.75;;;;;;;13.10;74.25;99590.38;2617790;48;20030;-66
2021/08/25 01:22:29;;;;;;;7.97;5.40;;;;;;;12.99;74.39;99582.91;2619266;54;20145;-65
2021/08/25 01:24:59;;;;;;;5.78;4.72;;;;;;;12.83;74.43;99583.16;2618992;47;20082;-66
2021/08/25 01:27:31;;;;;;;6.88;5.60;;;;;;;12.83;74.33;99578.66;2618454;54;20042;-67
2021/08/25 01:30:04;;;;;;;7.53;5.20;;;;;;;12.82;74.79;99581.53;2619404;54;20039;-66
2021/08/25 01:32:36;;;;;;;7.72;5.63;;;;;;;12.82;74.36;99569.06;2618281;54;20026;-67
2021/08/25 01:35:07;;;;;;;7.20;6.07;;;;;;;12.89;74.55;99574.44;2619216;39;20434;-66
2021/08/25 01:37:38;;;;;;;8.30;5.25;;;;;;;12.83;74.25;99568.06;2618120;47;20049;-66
2021/08/25 01:40:09;;;;;;;8.30;5.25;;;;;;;12.86;74.75;99565.03;2618969;54;20049;-66
2021/08/25 01:42:39;;;;;;;6.22;5.18;;;;;;;12.96;74.18;99563.91;2618215;54;20530;-65
2021/08/25 01:45:12;;;;;;;8.27;5.70;;;;;;;13.00;74.35;99568.63;2617818;54;20023;-66
2021/08/25 01:47:42;;;;;;;8.23;6.10;;;;;;;13.01;73.70;99566.78;2618090;54;20041;-66
2021/08/25 01:50:13;;;;;;;6.72;5.60;;;;;;;12.95;73.84;99567.56;2618447;54;20157;-66
2021/08/25 01:52:43;;;;;;;9.50;4.75;;;;;;;12.93;74.01;99554.47;2618186;39;20418;-66
2021/08/25 01:55:13;;;;;;;7.55;4.93;;;;;;;12.91;73.72;99561.00;2619203;54;20170;-67
2021/08/25 01:57:43;;;;;;;6.70;5.10;;;;;;;12.83;73.88;99546.00;2618691;54;20030;-66
2021/08/25 02:00:18;;;;;;;5.95;4.75;;;;;;;12.83;74.39;99548.66;2619838;54;20027;-68
2021/08/25 02:02:48;;;;;;;6.82;5.32;;;;;;;12.83;74.01;99552.13;2619228;47;20030;-66
2021/08/25 02:05:19;;;;;;;9.98;5.47;;;;;;;12.84;73.75;99560.91;2619477;54;20137;-67
2021/08/25 02:07:49;;;;;;;10.63;5.45;;;;;;;12.80;73.77;99551.69;2618799;54;20034;-65
2021/08/25 02:10:18;;;;;;;6.63;5.38;;;;;;;12.74;73.94;99555.94;2618833;54;20072;-65
2021/08/25 02:12:48;;;;;;;9.57;4.50;;;;;;;12.76;74.26;99550.44;2619707;39;20433;-65
2021/08/25 02:15:21;;;;;;;7.72;5.53;;;;;;;12.75;74.08;99552.25;2618427;47;20026;-66
2021/08/25 02:17:50;;;;;;;6.80;5.18;;;;;;;12.66;73.91;99548.09;2619357;54;20030;-65
2021/08/25 02:20:20;;;;;;;6.40;5.38;;;;;;;12.58;74.24;99542.91;2622054;54;20030;-66
2021/08/25 02:22:50;;;;;;;8.57;5.05;;;;;;;12.54;74.19;99546.94;2621401;54;20522;-67
2021/08/25 02:25:20;;;;;;;7.05;5.35;;;;;;;12.53;74.33;99550.56;2621984;54;20034;-67
2021/08/25 02:27:50;;;;;;;8.50;5.28;;;;;;;12.51;74.37;99550.78;2621720;54;20026;-66
2021/08/25 02:30:22;;;;;;;5.85;5.10;;;;;;;12.51;74.59;99548.13;2621591;54;20065;-67
2021/08/25 02:32:52;;;;;;;7.50;5.82;;;;;;;12.51;74.47;99552.59;2619835;54;20030;-66
2021/08/25 02:35:22;;;;;;;5.55;4.68;;;;;;;12.44;74.61;99552.50;2619839;54;20027;-67
2021/08/25 02:37:52;;;;;;;6.30;4.57;;;;;;;12.47;74.67;99553.97;2618598;54;20038;-66
2021/08/25 02:40:22;;;;;;;6.15;5.55;;;;;;;12.50;74.62;99545.66;2618620;39;20418;-67
2021/08/25 02:42:52;;;;;;;6.15;4.88;;;;;;;12.53;74.11;99554.06;2618891;54;20094;-66
2021/08/25 02:45:24;;;;;;;9.90;5.78;;;;;;;12.51;74.04;99540.16;2618967;54;20030;-67
2021/08/25 02:47:54;;;;;;;6.82;5.55;;;;;;;12.48;74.59;99540.53;2618178;54;20062;-66
2021/08/25 02:50:23;;;;;;;7.55;5.45;;;;;;;12.48;74.19;99537.88;2619532;39;20438;-66
2021/08/25 02:52:53;;;;;;;6.40;4.95;;;;;;;12.50;74.15;99537.72;2618912;39;20437;-66
2021/08/25 02:55:23;;;;;;;6.18;5.00;;;;;;;12.47;74.31;99532.78;2619116;54;20036;-65
2021/08/25 02:57:53;;;;;;;6.85;5.30;;;;;;;12.39;74.16;99536.34;2618837;54;20023;-66
2021/08/25 03:00:25;;;;;;;7.57;4.82;;;;;;;12.43;74.22;99534.97;2618945;39;20426;-67
2021/08/25 03:02:55;;;;;;;8.85;5.60;;;;;;;12.42;74.24;99533.34;2619050;54;20023;-67
2021/08/25 03:05:25;;;;;;;7.72;5.25;;;;;;;12.36;74.04;99536.72;2618226;47;20018;-66
2021/08/25 03:07:55;;;;;;;6.43;5.60;;;;;;;12.36;74.60;99526.94;2618509;54;20026;-66
2021/08/25 03:10:25;;;;;;;8.00;5.55;;;;;;;12.35;74.43;99530.59;2618871;39;20407;-66
2021/08/25 03:12:55;;;;;;;8.27;5.05;;;;;;;12.28;74.21;99534.16;2619479;54;20043;-66
2021/08/25 03:15:27;;;;;;;7.55;4.85;;;;;;;12.23;74.30;99524.13;2621302;54;20037;-65
2021/08/25 03:17:57;;;;;;;6.82;5.25;;;;;;;12.20;74.35;99521.03;2618446;54;20044;-66
2021/08/25 03:20:26;;;;;;;7.05;5.70;;;;;;;12.18;74.61;99523.88;2619193;54;20054;-66
2021/08/25 03:22:56;;;;;;;7.20;5.38;;;;;;;12.17;74.98;99521.41;2618708;54;20034;-66
2021/08/25 03:25:26;;;;;;;9.93;5.95;;;;;;;12.17;74.91;99522.22;2618366;54;20030;-66
2021/08/25 03:27:55;;;;;;;6.28;5.40;;;;;;;12.20;74.66;99521.84;2617924;54;20030;-66
2021/08/25 03:30:28;;;;;;;9.23;5.72;;;;;;;12.24;74.80;99517.00;2619080;54;20034;-66
2021/08/25 03:32:57;;;;;;;6.22;5.50;;;;;;;12.22;74.32;99506.59;2618956;54;20034;-66
2021/08/25 03:35:27;;;;;;;7.72;5.40;;;;;;;12.15;74.46;99511.78;2618983;54;20034;-66
2021/08/25 03:37:57;;;;;;;7.78;5.10;;;;;;;12.12;74.25;99520.13;2618807;54;20038;-65
2021/08/25 03:40:26;;;;;;;6.28;5.32;;;;;;;12.01;74.25;99510.00;2618877;54;20037;-66
2021/08/25 03:42:57;;;;;;;6.65;5.63;;;;;;;12.03;74.59;99501.84;2618337;47;20038;-66
2021/08/25 03:45:29;;;;;;;12.68;6.10;;;;;;;12.05;74.63;99503.31;2619072;54;20026;-66
2021/08/25 03:47:59;;;;;;;6.65;4.95;;;;;;;12.06;74.58;99512.09;2618314;54;20038;-66
2021/08/25 03:50:28;;;;;;;6.90;5.75;;;;;;;11.99;74.34;99500.59;2619507;39;20418;-66
2021/08/25 03:52:58;;;;;;;7.50;5.95;;;;;;;11.97;74.65;99502.59;2619450;39;20421;-66
2021/08/25 03:55:28;;;;;;;8.95;5.65;;;;;;;12.00;74.54;99510.16;2618736;54;20030;-67
2021/08/25 03:57:57;;;;;;;8.90;5.35;;;;;;;12.05;74.79;99499.84;2618902;39;20455;-65
2021/08/25 04:00:30;;;;;;;9.65;5.68;;;;;;;12.02;74.40;99501.03;2618192;54;20023;-66
2021/08/25 04:03:00;;;;;;;9.57;5.45;;;;;;;11.95;74.45;99501.97;2618970;54;20098;-65
2021/08/25 04:05:30;;;;;;;10.82;6.10;;;;;;;11.89;74.47;99496.41;2618944;54;20037;-66
2021/08/25 04:07:59;;;;;;;7.20;5.63;;;;;;;11.77;74.55;99499.66;2618504;54;20034;-66
2021/08/25 04:10:29;;;;;;;11.40;7.10;;;;;;;11.76;75.21;99506.78;2619117;54;20049;-65
2021/08/25 04:12:59;;;;;;;8.38;6.05;;;;;;;11.76;75.51;99509.44;2618648;54;20069;-65
2021/08/25 04:15:32;;;;;;;9.57;6.47;;;;;;;11.74;75.22;99500.84;2618534;46;20547;-66
2021/08/25 04:18:02;;;;;;;7.45;6.32;;;;;;;11.64;74.94;99510.91;2618337;54;20031;-66
2021/08/25 04:20:32;;;;;;;8.48;6.05;;;;;;;11.63;75.78;99509.22;2619050;39;20458;-65
2021/08/25 04:23:02;;;;;;;10.07;6.63;;;;;;;11.70;75.47;99512.81;2618893;54;20026;-66
2021/08/25 04:25:31;;;;;;;7.75;6.55;;;;;;;11.74;75.26;99513.25;2618448;54;20030;-66
2021/08/25 04:28:04;;;;;;;10.82;6.65;;;;;;;11.71;75.75;99505.69;2618919;54;20026;-66
2021/08/25 04:30:36;;;;;;;12.13;7.32;;;;;;;11.74;75.37;99502.66;2618595;47;20022;-66
2021/08/25 04:33:06;;;;;;;9.48;6.38;;;;;;;11.64;74.93;99506.41;2619832;39;20407;-66
2021/08/25 04:35:36;;;;;;;9.48;7.78;;;;;;;11.61;75.61;99498.84;2618941;54;20033;-66
2021/08/25 04:38:06;;;;;;;9.95;6.82;;;;;;;11.58;75.63;99501.03;2617494;54;20034;-66
2021/08/25 04:40:36;;;;;;;8.25;6.57;;;;;;;11.59;75.91;99500.00;2618360;39;20434;-66
2021/08/25 04:43:06;;;;;;;8.90;6.07;;;;;;;11.65;75.71;99486.88;2618447;54;20018;-66
2021/08/25 04:45:39;;;;;;;11.63;6.80;;;;;;;11.57;75.48;99488.78;2617766;51;20534;-66
2021/08/25 04:48:09;;;;;;;8.88;6.47;;;;;;;11.54;75.55;99489.97;2618317;54;20073;-66
2021/08/25 04:50:39;;;;;;;8.57;6.38;;;;;;;11.53;75.73;99493.63;2617716;54;20545;-66
2021/08/25 04:53:09;;;;;;;8.27;6.53;;;;;;;11.56;75.52;99492.44;2618825;54;20019;-66
2021/08/25 04:55:39;;;;;;;11.57;7.93;;;;;;;11.65;75.38;99494.00;2619040;39;20371;-67
2021/08/25 04:58:09;;;;;;;11.50;7.40;;;;;;;11.64;75.14;99500.31;2617841;39;20452;-67
2021/08/25 05:00:45;;;;;;;10.57;8.00;;;;;;;11.60;74.86;99507.78;2617663;54;20042;-68
2021/08/25 05:03:15;;;;;;;9.13;7.82;;;;;;;11.61;75.28;99506.78;2617835;54;20038;-67
2021/08/25 05:05:45;;;;;;;10.27;8.60;;;;;;;11.69;74.85;99513.81;2618158;54;20037;-67
2021/08/25 05:08:15;;;;;;;9.68;8.18;;;;;;;11.79;75.06;99511.69;2617872;54;20022;-67
2021/08/25 05:10:49;;;;;;;11.75;8.68;;;;;;;11.81;74.77;99508.88;2619296;54;20030;-67
2021/08/25 05:13:19;;;;;;;11.00;8.35;;;;;;;11.87;75.00;99506.34;2618895;54;20038;-67
2021/08/25 05:15:51;;;;;;;11.30;9.15;;;;;;;11.99;74.89;99512.00;2618477;54;20026;-67
2021/08/25 05:18:21;;;;;;;10.23;7.43;;;;;;;12.06;74.34;99515.56;2618296;54;20027;-67
2021/08/25 05:20:51;;;;;;;10.13;8.18;;;;;;;12.12;74.47;99521.94;2618219;54;20035;-67
2021/08/25 05:23:20;;;;;;;13.50;8.88;;;;;;;12.15;74.27;99514.44;2618358;54;20050;-66
2021/08/25 05:25:50;;;;;;;9.82;7.90;;;;;;;12.18;73.93;99518.56;2617779;47;20042;-66
2021/08/25 05:28:20;;;;;;;12.43;9.35;;;;;;;12.23;74.11;99510.88;2618392;54;20034;-66
2021/08/25 05:30:52;;;;;;;12.30;8.68;;;;;;;12.27;74.02;99508.69;2618365;54;20069;-66
2021/08/25 05:33:21;;;;;;;12.20;9.38;;;;;;;12.34;74.20;99515.69;2619139;39;20411;-66
2021/08/25 05:35:51;;;;;;;14.48;11.50;;;;;;;12.43;73.52;99519.06;2618419;54;20149;-68
2021/08/25 05:38:21;;;;;;;11.23;8.80;;;;;;;12.45;73.37;99525.00;2617252;54;20037;-67
2021/08/25 05:43:43;;;;;;;10.57;9.07;;;;;;;12.53;73.79;99516.09;2618053;54;20034;-67
2021/08/25 05:46:17;;;;;;;11.15;8.43;;;;;;;12.60;73.54;99514.34;2618035;54;20631;-67
2021/08/25 05:48:47;;;;;;;12.40;9.40;;;;;;;12.63;73.25;99517.44;2618516;47;20039;-67
2021/08/25 05:51:17;;;;;;;16.02;10.70;;;;;;;12.73;73.33;99521.59;2622217;54;20042;-67
2021/08/25 05:53:48;;;;;;;14.57;8.50;;;;;;;12.74;73.20;99525.94;2625274;31;20562;-68
2021/08/25 05:56:19;;;;;;;16.65;7.90;;;;;;;12.77;73.36;99522.88;2624752;54;20035;-67
2021/08/25 05:58:49;;;;;;;14.15;8.30;;;;;;;12.86;73.13;99519.94;2626867;39;20409;-67
2021/08/25 06:01:24;;;;;;;14.38;7.90;;;;;;;12.91;73.16;99507.91;2624059;54;20042;-67
2021/08/25 06:03:56;;;;;;;16.35;8.75;;;;;;;12.96;72.94;99516.94;2622439;54;20038;-66
2021/08/25 06:06:31;;;;;;;18.15;10.60;;;;;;;12.98;73.23;99522.06;2622470;39;20438;-67
2021/08/25 06:09:01;;;;;;;15.50;11.85;;;;;;;12.99;73.13;99513.09;2622210;54;20078;-67
2021/08/25 06:11:31;;;;;;;19.15;8.98;;;;;;;12.97;73.12;99512.44;2621936;54;20022;-68
2021/08/25 06:14:01;;;;;;;14.27;10.85;;;;;;;13.05;73.26;99513.13;2622403;54;20031;-67
2021/08/25 06:16:33;;;;;;;14.63;10.18;;;;;;;13.16;73.38;99514.47;2621527;47;20023;-67
2021/08/25 06:19:10;;;;;;;17.40;9.77;;;;;;;13.29;73.08;99519.09;2623659;54;20027;-67
2021/08/25 06:21:39;;;;;;;14.75;11.18;;;;;;;13.45;72.71;99516.16;2623678;54;20048;-66
2021/08/25 06:24:10;;;;;;;14.48;9.45;;;;;;;13.56;72.60;99520.94;2623526;46;20056;-67
2021/08/25 06:26:43;;;;;;;14.48;10.05;;;;;;;13.67;72.57;99516.88;2622838;54;20090;-67
2021/08/25 06:29:13;;;;;;;15.15;10.88;;;;;;;13.79;72.38;99509.19;2619585;47;20030;-67
2021/08/25 06:31:45;;;;;;;17.42;11.75;;;;;;;13.94;71.85;99514.41;2618904;54;20030;-67
2021/08/25 06:34:15;;;;;;;12.77;9.70;;;;;;;14.08;71.57;99518.75;2618051;54;20022;-67
2021/08/25 06:36:45;;;;;;;13.05;9.55;;;;;;;14.22;71.37;99514.31;2617953;54;20031;-67
2021/08/25 06:39:14;;;;;;;15.13;8.63;;;;;;;14.33;71.04;99513.75;2618033;54;20082;-66
2021/08/25 06:41:44;;;;;;;11.75;8.75;;;;;;;14.35;71.26;99507.19;2618753;54;20042;-66
2021/08/25 06:44:14;;;;;;;9.68;8.68;;;;;;;14.44;70.86;99502.50;2618002;54;20034;-66
2021/08/25 06:46:46;;;;;;;11.80;8.13;;;;;;;14.50;70.21;99504.41;2618954;39;20426;-65
2021/08/25 06:49:16;;;;;;;10.07;8.40;;;;;;;14.58;70.12;99501.56;2619570;54;20038;-66
2021/08/25 06:51:46;;;;;;;15.35;9.90;;;;;;;14.64;70.35;99501.78;2619470;54;20026;-66
2021/08/25 06:54:15;;;;;;;13.10;9.48;;;;;;;14.68;69.60;99506.50;2619293;54;20054;-67
2021/08/25 06:56:45;;;;;;;12.02;8.15;;;;;;;14.70;69.98;99501.00;2619888;54;20038;-66
2021/08/25 06:59:15;;;;;;;10.55;7.90;;;;;;;14.75;69.94;99502.00;2620329;54;20042;-66
2021/08/25 07:01:47;;;;;;;10.70;6.97;;;;;;;14.78;69.61;99493.63;2619515;47;20035;-67
2021/08/25 07:04:18;;;;;;;9.87;7.43;;;;;;;14.86;69.82;99496.09;2620538;39;20456;-67
2021/08/25 07:06:48;;;;;;;10.00;6.90;;;;;;;14.96;69.72;99487.69;2620075;39;20418;-66
2021/08/25 07:09:18;;;;;;;12.05;7.40;;;;;;;15.03;69.17;99487.72;2620092;54;20042;-66
2021/08/25 07:11:47;;;;;;;8.68;7.32;;;;;;;15.05;69.31;99490.97;2619272;47;20098;-67
2021/08/25 07:14:17;;;;;;;7.80;7.00;;;;;;;15.13;69.27;99488.09;2619780;54;20034;-66
2021/08/25 07:16:49;;;;;;;11.73;9.40;;;;;;;15.19;68.73;99489.97;2619456;54;20038;-66
2021/08/25 07:19:19;;;;;;;15.13;11.13;;;;;;;15.25;68.54;99482.97;2619892;54;20037;-66
2021/08/25 07:21:49;;;;;;;14.73;8.85;;;;;;;15.31;68.69;99482.97;2619088;54;20027;-66
2021/08/25 07:24:18;;;;;;;12.93;6.97;;;;;;;15.50;68.62;99486.63;2619764;54;20034;-66
2021/08/25 07:26:48;;;;;;;9.50;6.40;;;;;;;15.64;67.96;99479.44;2619490;54;20026;-65
2021/08/25 07:29:18;;;;;;;8.88;6.25;;;;;;;15.74;67.65;99481.69;2620250;54;20103;-65
2021/08/25 07:31:50;;;;;;;7.70;6.90;;;;;;;15.75;67.17;99478.00;2619788;54;20038;-65
2021/08/25 07:34:20;;;;;;;7.55;5.90;;;;;;;15.80;67.58;99478.22;2619977;54;20086;-65
2021/08/25 07:36:49;;;;;;;9.60;6.38;;;;;;;15.89;67.33;99471.59;2618924;54;20034;-67
2021/08/25 07:39:19;;;;;;;7.35;6.65;;;;;;;16.00;67.63;99478.97;2619024;54;20031;-66
2021/08/25 07:41:49;;;;;;;8.48;7.35;;;;;;;16.05;66.90;99483.66;2619768;54;20029;-66
2021/08/25 07:44:20;;;;;;;7.72;6.40;;;;;;;16.04;66.82;99482.84;2619433;54;20042;-66
2021/08/25 07:46:53;;;;;;;8.52;5.88;;;;;;;16.04;66.67;99482.00;2618791;54;20041;-67
2021/08/25 07:49:24;;;;;;;6.68;6.00;;;;;;;16.09;66.43;99488.34;2620405;39;20407;-67
2021/08/25 07:51:54;;;;;;;10.02;7.30;;;;;;;16.14;66.80;99479.72;2619598;47;20031;-67
2021/08/25 07:54:23;;;;;;;10.23;6.30;;;;;;;16.19;66.33;99476.41;2620229;54;20031;-66
2021/08/25 07:56:53;;;;;;;7.60;6.47;;;;;;;16.20;65.91;99478.03;2619692;54;20057;-66
2021/08/25 07:59:23;;;;;;;9.75;7.10;;;;;;;16.27;66.24;99462.81;2620435;54;20046;-66
2021/08/25 08:01:55;;;;;;;9.85;6.60;;;;;;;16.24;66.38;99461.38;2619479;51;20034;-67
2021/08/25 08:04:26;;;;;;;9.23;7.45;;;;;;;16.31;66.04;99466.69;2620197;54;20057;-66
2021/08/25 08:06:56;;;;;;;8.52;7.07;;;;;;;16.47;64.40;99458.19;2620166;54;20022;-67
2021/08/25 08:09:26;;;;;;;12.27;7.25;;;;;;;16.56;63.53;99461.41;2619596;47;20027;-66
2021/08/25 08:11:55;;;;;;;10.07;7.35;;;;;;;16.63;62.99;99453.38;2619114;54;20026;-66
2021/08/25 08:14:25;;;;;;;8.75;7.13;;;;;;;16.67;63.08;99460.72;2618988;54;20061;-66
2021/08/25 08:17:00;;;;;;;9.27;6.70;;;;;;;16.71;62.34;99463.78;2618142;47;20030;-66
2021/08/25 08:19:33;;;;;;;8.40;6.75;;;;;;;16.73;62.67;99456.41;2619204;54;20022;-66
2021/08/25 08:22:06;;;;;;;12.13;8.70;;;;;;;16.77;62.66;99452.25;2618968;54;20060;-66
2021/08/25 08:24:36;;;;;;;11.77;7.03;;;;;;;16.84;62.10;99448.50;2619852;39;20407;-67
2021/08/25 08:27:07;;;;;;;10.13;7.03;;;;;;;16.97;62.72;99449.44;2617590;47;20058;-67
2021/08/25 08:29:37;;;;;;;10.90;7.47;;;;;;;17.07;62.45;99449.78;2619337;39;20426;-67
2021/08/25 08:32:11;;;;;;;12.27;6.55;;;;;;;17.05;61.94;99449.16;2619418;39;20449;-67
2021/08/25 08:34:40;;;;;;;;;;;;;;;17.06;61.47;99438.28;2619014;54;20031;-67
2021/08/25 08:37:10;;;;;;;6.30;5.50;;;;;;;17.11;60.85;99445.63;2618520;39;20360;-66
2021/08/25 08:39:40;;;;;;;7.90;6.80;;;;;;;17.18;61.58;99454.38;2618956;54;20039;-66
2021/08/25 08:42:26;;;;;;;6.82;5.75;;;;;;;17.36;60.60;99448.28;2619002;54;20034;-66
2021/08/25 08:44:57;;;;;;;6.05;5.22;;;;;;;17.40;60.66;99448.66;2619092;54;20026;-67
2021/08/25 08:47:31;;;;;;;6.95;5.28;;;;;;;17.54;59.50;99434.91;2618286;54;20538;-67
2021/08/25 08:50:01;;;;;;;;;;;;;;;17.64;59.55;99444.28;2619081;54;20593;-67
2021/08/25 08:52:31;;;;;;;7.20;5.18;;;;;;;17.68;58.90;99440.13;2619067;54;20438;-67
2021/08/25 08:55:00;;;;;;;8.57;5.55;;;;;;;17.80;58.84;99441.03;2619124;54;20569;-67
2021/08/25 08:57:30;;;;;;;7.68;6.03;;;;;;;17.88;58.83;99440.75;2618913;54;20045;-66
2021/08/25 09:00:01;;;;;;;9.55;5.35;;;;;;;17.96;58.72;99434.25;2620699;54;20031;-66
2021/08/25 09:02:46;;;;;;;;;;;;;;;18.11;57.50;99428.50;2622812;46;20018;-66
2021/08/25 09:05:20;;;;;;;9.88;5.53;;;;;;;18.18;57.03;99426.56;2620189;47;19942;-66
2021/08/25 09:07:52;;;;;;;6.50;4.60;;;;;;;18.25;57.24;99425.44;2619672;54;20027;-66
2021/08/25 09:10:30;;;;;;;6.00;4.95;;;;;;;18.32;56.84;99436.03;2620091;47;20026;-65
2021/08/25 09:13:02;;;;;;;7.13;5.00;;;;;;;18.35;56.31;99427.56;2622656;47;20094;-66
2021/08/25 09:15:33;;;;;;;8.93;5.47;;;;;;;18.37;56.49;99433.50;2624380;54;20082;-67
2021/08/25 09:18:08;;;;;;;5.55;4.40;;;;;;;18.46;55.38;99425.97;2624594;54;20029;-66
2021/08/25 09:20:44;;;;;;;5.60;4.38;;;;;;;18.49;55.24;99434.38;2624655;54;20034;-67
2021/08/25 09:23:17;;;;;;;5.90;4.90;;;;;;;18.59;55.99;99435.66;2622801;54;20560;-67
2021/08/25 09:25:49;;;;;;;8.48;5.82;;;;;;;18.77;55.04;99428.38;2621068;54;20046;-67
2021/08/25 09:28:20;;;;;;;9.13;5.97;;;;;;;18.76;55.79;99426.75;2620720;54;20034;-65
2021/08/25 09:31:01;;;;;;;7.25;4.85;;;;;;;18.84;55.30;99419.44;2621438;39;20423;-66
2021/08/25 09:33:36;;;;;;;10.48;5.63;;;;;;;18.96;54.78;99425.63;2620653;54;20067;-68
2021/08/25 09:36:08;;;;;;;7.13;4.95;;;;;;;19.06;52.43;99428.50;2621627;39;20484;-66
2021/08/25 09:38:39;;;;;;;7.90;4.97;;;;;;;19.12;52.82;99421.44;2620278;47;20041;-66
2021/08/25 09:41:10;;;;;;;8.75;4.40;;;;;;;19.18;52.20;99417.81;2620166;47;20027;-66
2021/08/25 09:43:43;;;;;;;6.47;4.90;;;;;;;19.26;52.57;99415.59;2620566;54;20050;-66
2021/08/25 09:46:19;;;;;;;7.07;4.97;;;;;;;19.29;52.47;99411.63;2620472;54;20030;-66
2021/08/25 09:48:53;;;;;;;6.07;4.70;;;;;;;19.21;53.05;99411.97;2619610;54;20023;-67
2021/08/25 09:51:24;;;;;;;6.90;4.15;;;;;;;19.30;52.20;99416.75;2620073;54;20542;-66
2021/08/25 09:54:06;;;;;;;5.38;4.53;;;;;;;19.29;52.52;99411.63;2619755;47;20034;-66
2021/08/25 09:56:38;;;;;;;8.50;4.70;;;;;;;19.19;53.30;99401.50;2620817;39;20453;-66
2021/08/25 09:59:09;;;;;;;6.35;4.43;;;;;;;19.12;52.41;99400.00;2620454;54;20034;-66
2021/08/25 10:01:39;;;;;;;5.47;4.10;;;;;;;19.30;52.24;99397.16;2620407;54;20027;-66
2021/08/25 10:04:14;;;;;;;8.45;4.63;;;;;;;19.38;51.03;99394.13;2620137;54;20041;-66
2021/08/25 10:06:46;;;;;;;6.45;4.75;;;;;;;19.49;50.41;99389.81;2619722;54;20046;-67
2021/08/25 10:09:17;;;;;;;6.35;3.85;;;;;;;19.63;50.40;99385.00;2620364;54;20034;-66
2021/08/25 10:11:49;;;;;;;6.22;4.45;;;;;;;19.66;49.42;99392.59;2620388;39;20441;-66
2021/08/25 10:14:18;;;;;;;6.60;4.55;;;;;;;19.68;48.77;99385.94;2619522;47;20041;-67
2021/08/25 10:16:49;;;;;;;5.90;4.60;;;;;;;19.75;48.95;99391.16;2619324;47;20030;-66
2021/08/25 10:19:37;;;;;;;6.57;5.30;;;;;;;19.82;49.79;99383.00;2619769;47;20037;-67
2021/08/25 10:22:25;;;;;;;13.77;10.02;;;;;;;19.89;49.53;99378.31;2620338;47;20593;-66
2021/08/25 10:25:04;;;;;;;6.90;4.43;;;;;;;19.94;49.70;99364.97;2620312;46;20033;-66
2021/08/25 10:27:36;;;;;;;5.95;4.35;;;;;;;20.07;47.30;99366.56;2620400;47;20037;-65
2021/08/25 10:30:24;;;;;;;7.03;4.88;;;;;;;20.08;46.04;99366.28;2620459;47;20022;-66
2021/08/25 10:33:12;;;;;;;5.82;4.15;;;;;;;20.09;46.82;99361.78;2620819;54;20038;-67
2021/08/25 10:35:47;;;;;;;6.63;4.78;;;;;;;20.11;46.73;99354.28;2621214;54;20031;-67
2021/08/25 10:38:29;;;;;;;5.05;4.30;;;;;;;20.16;45.92;99365.91;2620782;54;20061;-67
2021/08/25 10:41:08;;;;;;;10.18;4.40;;;;;;;20.31;46.20;99354.63;2620861;54;20019;-66
2021/08/25 10:43:41;;;;;;;7.43;4.03;;;;;;;20.49;45.81;99357.13;2620923;54;20038;-67
2021/08/25 10:46:13;;;;;;;5.90;4.05;;;;;;;20.60;45.66;99355.41;2620749;47;20034;-67
2021/08/25 10:48:46;;;;;;;6.30;4.80;;;;;;;20.67;45.20;99355.25;2620985;54;20019;-67
2021/08/25 10:51:30;;;;;;;5.88;4.57;;;;;;;20.75;43.24;99350.28;2621077;54;20038;-66
2021/08/25 10:54:02;;;;;;;6.45;4.20;;;;;;;20.73;42.48;99340.81;2620045;54;20029;-67
2021/08/25 10:56:37;;;;;;;4.55;3.60;;;;;;;20.75;43.19;99346.78;2619974;47;20030;-67
2021/08/25 10:59:09;;;;;;;7.70;4.75;;;;;;;20.88;42.79;99334.88;2620395;54;20041;-67
2021/08/25 11:01:41;;;;;;;5.80;4.15;;;;;;;21.07;41.56;99330.03;2620741;54;20026;-67
2021/08/25 11:04:16;;;;;;;6.80;4.40;;;;;;;21.31;40.64;99325.22;2620032;54;20032;-67
2021/08/25 11:06:55;;;;;;;4.85;3.60;;;;;;;21.39;41.79;99325.66;2621477;39;20415;-67
2021/08/25 11:09:30;;;;;;;5.20;4.20;;;;;;;21.49;41.93;99320.38;2620144;54;20026;-66
2021/08/25 11:12:07;;;;;;;5.97;4.35;;;;;;;21.42;41.69;99317.06;2620083;46;20050;-65
2021/08/25 11:14:44;;;;;;;6.85;4.03;;;;;;;21.38;41.21;99318.63;2620749;54;20031;-65
2021/08/25 11:17:17;;;;;;;5.60;4.18;;;;;;;21.30;41.39;99318.22;2620959;54;20031;-66
2021/08/25 11:19:48;;;;;;;8.45;4.05;;;;;;;21.43;40.05;99307.97;2621026;54;20538;-65
2021/08/25 11:22:24;;;;;;;5.55;4.30;;;;;;;21.50;38.09;99305.06;2620909;54;20034;-65
2021/08/25 11:24:55;;;;;;;5.72;4.40;;;;;;;21.56;37.65;99298.69;2621399;54;20033;-65
2021/08/25 11:27:30;;;;;;;7.72;3.85;;;;;;;21.47;37.71;99301.00;2621986;54;20034;-66
2021/08/25 11:30:15;;;;;;;5.50;4.57;;;;;;;21.55;37.50;99299.72;2622022;54;20030;-66
2021/08/25 11:32:55;;;;;;;5.80;4.30;;;;;;;21.59;38.36;99292.78;2621227;51;20023;-67
2021/08/25 11:35:28;;;;;;;6.70;4.35;;;;;;;21.56;37.52;99290.63;2622233;54;20057;-68
2021/08/25 11:38:07;;;;;;;8.07;4.00;;;;;;;21.52;38.17;99284.91;2621576;54;20534;-67
2021/08/25 11:40:39;;;;;;;5.97;3.78;;;;;;;21.52;38.94;99294.88;2622083;54;20170;-68
2021/08/25 11:43:09;;;;;;;4.72;3.70;;;;;;;21.59;38.34;99282.00;2621672;54;20155;-67
2021/08/25 11:45:40;;;;;;;6.22;4.25;;;;;;;21.69;37.23;99287.53;2621465;54;20034;-67
2021/08/25 11:48:11;;;;;;;3.95;3.50;;;;;;;21.54;36.89;99281.16;2622389;54;20037;-67
2021/08/25 11:50:43;;;;;;;6.15;4.47;;;;;;;21.48;37.19;99280.31;2621153;39;20535;-66
2021/08/25 11:53:20;;;;;;;5.22;3.38;;;;;;;21.56;37.45;99273.66;2620371;54;20038;-66
2021/08/25 11:55:52;;;;;;;8.05;4.40;;;;;;;21.75;37.59;99274.91;2623157;54;20050;-67
2021/08/25 11:58:26;;;;;;;7.07;5.00;;;;;;;21.92;36.90;99272.97;2619356;47;20030;-67